sensor_id;sensor_type;location;lat;lon;timestamp;pressure;altitude;pressure_sealevel;temperature;humidity
32875;BME280;40468;42.128;24.750;2023-04-07T00:00:25;99518.84;;;7.78;39.93
32875;BME280;40468;42.128;24.750;2023-04-07T00:01:57;99524.03;;;7.78;39.97
32875;BME280;40468;42.128;24.750;2023-04-07T00:03:30;99529.22;;;7.78;39.90
32875;BME280;40468;42.128;24.750;2023-04-07T00:05:03;99519.97;;;7.71;39.57
32875;BME280;40468;42.128;24.750;2023-04-07T00:06:35;99521.66;;;7.72;39.47
32875;BME280;40468;42.128;24.750;2023-04-07T00:08:07;99521.75;;;7.69;39.56
32875;BME280;40468;42.128;24.750;2023-04-07T00:09:38;99517.59;;;7.65;39.49
32875;BME280;40468;42.128;24.750;2023-04-07T00:11:10;99527.06;;;7.66;39.92
32875;BME280;40468;42.128;24.750;2023-04-07T00:12:42;99524.34;;;7.69;39.65
32875;BME280;40468;42.128;24.750;2023-04-07T00:14:13;99521.00;;;7.67;39.58
32875;BME280;40468;42.128;24.750;2023-04-07T00:15:45;99530.41;;;7.69;39.76
32875;BME280;40468;42.128;24.750;2023-04-07T00:17:17;99519.28;;;7.66;39.58
32875;BME280;40468;42.128;24.750;2023-04-07T00:18:50;99526.16;;;7.67;39.77
32875;BME280;40468;42.128;24.750;2023-04-07T00:20:22;99519.41;;;7.63;39.81
32875;BME280;40468;42.128;24.750;2023-04-07T00:21:54;99524.41;;;7.67;39.93
32875;BME280;40468;42.128;24.750;2023-04-07T00:23:25;99528.66;;;7.70;39.68
32875;BME280;40468;42.128;24.750;2023-04-07T00:24:57;99527.00;;;7.67;39.75
32875;BME280;40468;42.128;24.750;2023-04-07T00:26:29;99520.06;;;7.68;39.54
32875;BME280;40468;42.128;24.750;2023-04-07T00:28:02;99524.34;;;7.69;39.65
32875;BME280;40468;42.128;24.750;2023-04-07T00:29:34;99515.81;;;7.67;39.71
32875;BME280;40468;42.128;24.750;2023-04-07T00:31:05;99524.31;;;7.70;39.69
32875;BME280;40468;42.128;24.750;2023-04-07T00:32:37;99523.38;;;7.71;39.59
32875;BME280;40468;42.128;24.750;2023-04-07T00:34:10;99520.88;;;7.70;39.66
32875;BME280;40468;42.128;24.750;2023-04-07T00:35:43;99518.44;;;7.65;39.60
32875;BME280;40468;42.128;24.750;2023-04-07T00:37:14;99522.91;;;7.62;39.70
32875;BME280;40468;42.128;24.750;2023-04-07T00:38:46;99522.09;;;7.60;39.64
32875;BME280;40468;42.128;24.750;2023-04-07T00:40:18;99523.84;;;7.59;39.77
32875;BME280;40468;42.128;24.750;2023-04-07T00:41:50;99523.13;;;7.56;39.66
32875;BME280;40468;42.128;24.750;2023-04-07T00:43:22;99521.44;;;7.55;39.75
32875;BME280;40468;42.128;24.750;2023-04-07T00:44:55;99523.25;;;7.52;39.83
32875;BME280;40468;42.128;24.750;2023-04-07T00:46:26;99529.22;;;7.55;39.93
32875;BME280;40468;42.128;24.750;2023-04-07T00:47:58;99525.84;;;7.52;39.85
32875;BME280;40468;42.128;24.750;2023-04-07T00:49:32;99523.25;;;7.52;40.01
32875;BME280;40468;42.128;24.750;2023-04-07T00:51:04;99523.28;;;7.51;40.07
32875;BME280;40468;42.128;24.750;2023-04-07T00:52:36;99516.44;;;7.50;39.96
32875;BME280;40468;42.128;24.750;2023-04-07T00:54:09;99525.00;;;7.52;39.82
32875;BME280;40468;42.128;24.750;2023-04-07T00:55:41;99518.19;;;7.49;39.84
32875;BME280;40468;42.128;24.750;2023-04-07T00:57:13;99519.13;;;7.47;39.90
32875;BME280;40468;42.128;24.750;2023-04-07T00:58:45;99514.91;;;7.44;39.81
32875;BME280;40468;42.128;24.750;2023-04-07T01:00:17;99518.44;;;7.42;39.91
32875;BME280;40468;42.128;24.750;2023-04-07T01:02:02;99515.09;;;7.40;39.77
32875;BME280;40468;42.128;24.750;2023-04-07T01:03:43;99520.44;;;7.35;39.74
32875;BME280;40468;42.128;24.750;2023-04-07T01:05:20;99516.31;;;7.29;39.82
32875;BME280;40468;42.128;24.750;2023-04-07T01:07:00;99523.13;;;7.32;39.91
32875;BME280;40468;42.128;24.750;2023-04-07T01:08:40;99512.88;;;7.29;39.73
32875;BME280;40468;42.128;24.750;2023-04-07T01:10:18;99518.97;;;7.28;39.59
32875;BME280;40468;42.128;24.750;2023-04-07T01:11:57;99518.09;;;7.27;39.68
32875;BME280;40468;42.128;24.750;2023-04-07T01:13:33;99513.00;;;7.26;39.56
32875;BME280;40468;42.128;24.750;2023-04-07T01:15:09;99518.22;;;7.24;39.58
32875;BME280;40468;42.128;24.750;2023-04-07T01:16:45;99516.50;;;7.25;39.61
32875;BME280;40468;42.128;24.750;2023-04-07T01:18:21;99507.00;;;7.24;39.68
32875;BME280;40468;42.128;24.750;2023-04-07T01:19:58;99513.91;;;7.25;39.58
32875;BME280;40468;42.128;24.750;2023-04-07T01:21:33;99519.19;;;7.22;39.43
32875;BME280;40468;42.128;24.750;2023-04-07T01:23:06;99524.38;;;7.22;39.64
32875;BME280;40468;42.128;24.750;2023-04-07T01:24:56;99452.56;;;6.78;39.41
32875;BME280;40468;42.128;24.750;2023-04-07T01:26:32;99532.25;;;7.19;39.55
32875;BME280;40468;42.128;24.750;2023-04-07T01:28:14;99525.44;;;7.16;39.84
32875;BME280;40468;42.128;24.750;2023-04-07T01:29:53;99519.59;;;7.10;39.62
32875;BME280;40468;42.128;24.750;2023-04-07T01:31:27;99482.56;;;6.84;39.44
32875;BME280;40468;42.128;24.750;2023-04-07T01:32:59;99527.44;;;7.08;39.54
32875;BME280;40468;42.128;24.750;2023-04-07T01:34:32;99527.56;;;7.05;39.72
32875;BME280;40468;42.128;24.750;2023-04-07T01:36:06;99521.53;;;7.04;39.71
32875;BME280;40468;42.128;24.750;2023-04-07T01:37:38;99525.88;;;7.04;39.78
32875;BME280;40468;42.128;24.750;2023-04-07T01:39:11;99524.22;;;7.01;39.74
32875;BME280;40468;42.128;24.750;2023-04-07T01:40:43;99527.88;;;6.96;39.78
32875;BME280;40468;42.128;24.750;2023-04-07T01:42:18;99531.41;;;6.93;39.94
32875;BME280;40468;42.128;24.750;2023-04-07T01:43:50;99539.06;;;6.96;39.84
32875;BME280;40468;42.128;24.750;2023-04-07T01:45:25;99533.09;;;6.94;39.97
32875;BME280;40468;42.128;24.750;2023-04-07T01:46:58;99539.06;;;6.96;39.92
32875;BME280;40468;42.128;24.750;2023-04-07T01:48:31;99534.09;;;6.90;40.14
32875;BME280;40468;42.128;24.750;2023-04-07T01:50:05;99528.19;;;6.87;40.04
32875;BME280;40468;42.128;24.750;2023-04-07T01:51:39;99531.56;;;6.89;40.04
32875;BME280;40468;42.128;24.750;2023-04-07T01:53:11;99531.50;;;6.90;40.02
32875;BME280;40468;42.128;24.750;2023-04-07T01:54:43;99530.72;;;6.88;40.08
32875;BME280;40468;42.128;24.750;2023-04-07T01:56:17;99528.94;;;6.90;40.12
32875;BME280;40468;42.128;24.750;2023-04-07T01:57:49;99528.03;;;6.91;40.04
32875;BME280;40468;42.128;24.750;2023-04-07T01:59:20;99528.94;;;6.90;40.03
32875;BME280;40468;42.128;24.750;2023-04-07T02:00:53;99511.16;;;6.79;40.01
32875;BME280;40468;42.128;24.750;2023-04-07T02:02:25;99534.22;;;6.87;40.03
32875;BME280;40468;42.128;24.750;2023-04-07T02:04:03;99526.47;;;6.86;40.18
32875;BME280;40468;42.128;24.750;2023-04-07T02:05:37;99536.00;;;6.85;40.03
32875;BME280;40468;42.128;24.750;2023-04-07T02:07:15;99530.81;;;6.85;40.13
32875;BME280;40468;42.128;24.750;2023-04-07T02:08:54;99530.94;;;6.82;40.05
32875;BME280;40468;42.128;24.750;2023-04-07T02:10:28;99530.94;;;6.82;40.04
32875;BME280;40468;42.128;24.750;2023-04-07T02:12:01;99432.09;;;6.21;40.10
32875;BME280;40468;42.128;24.750;2023-04-07T02:13:36;99533.50;;;6.82;40.13
32875;BME280;40468;42.128;24.750;2023-04-07T02:15:09;99533.50;;;6.82;40.10
32875;BME280;40468;42.128;24.750;2023-04-07T02:16:45;99531.94;;;6.78;40.04
32875;BME280;40468;42.128;24.750;2023-04-07T02:18:18;99523.34;;;6.77;40.14
32875;BME280;40468;42.128;24.750;2023-04-07T02:19:51;99529.38;;;6.76;40.10
32875;BME280;40468;42.128;24.750;2023-04-07T02:21:24;99524.28;;;6.75;39.84
32875;BME280;40468;42.128;24.750;2023-04-07T02:22:56;99526.00;;;6.74;39.91
32875;BME280;40468;42.128;24.750;2023-04-07T02:24:28;99529.47;;;6.75;39.78
32875;BME280;40468;42.128;24.750;2023-04-07T02:25:59;99530.34;;;6.74;39.88
32875;BME280;40468;42.128;24.750;2023-04-07T02:27:31;99524.38;;;6.72;39.90
32875;BME280;40468;42.128;24.750;2023-04-07T02:29:03;99526.97;;;6.72;39.91
32875;BME280;40468;42.128;24.750;2023-04-07T02:30:35;99529.56;;;6.72;39.93
32875;BME280;40468;42.128;24.750;2023-04-07T02:32:09;99527.81;;;6.72;40.13
32875;BME280;40468;42.128;24.750;2023-04-07T02:33:41;99529.56;;;6.72;40.06
32875;BME280;40468;42.128;24.750;2023-04-07T02:35:13;99531.25;;;6.73;39.99
32875;BME280;40468;42.128;24.750;2023-04-07T02:36:45;99527.13;;;6.67;39.93
32875;BME280;40468;42.128;24.750;2023-04-07T02:38:16;99531.44;;;6.67;40.06
32875;BME280;40468;42.128;24.750;2023-04-07T02:39:48;99523.63;;;6.68;39.99
32875;BME280;40468;42.128;24.750;2023-04-07T02:41:20;99527.84;;;6.71;40.03
32875;BME280;40468;42.128;24.750;2023-04-07T02:42:52;99525.22;;;6.72;39.92
32875;BME280;40468;42.128;24.750;2023-04-07T02:44:23;99525.25;;;6.71;40.05
32875;BME280;40468;42.128;24.750;2023-04-07T02:45:55;99533.03;;;6.71;40.05
32875;BME280;40468;42.128;24.750;2023-04-07T02:47:28;99533.03;;;6.71;40.11
32875;BME280;40468;42.128;24.750;2023-04-07T02:49:00;99531.34;;;6.70;40.14
32875;BME280;40468;42.128;24.750;2023-04-07T02:50:32;99533.94;;;6.70;40.20
32875;BME280;40468;42.128;24.750;2023-04-07T02:52:04;99534.84;;;6.69;40.28
32875;BME280;40468;42.128;24.750;2023-04-07T02:53:36;99530.66;;;6.65;40.44
32875;BME280;40468;42.128;24.750;2023-04-07T02:55:08;99535.03;;;6.63;40.43
32875;BME280;40468;42.128;24.750;2023-04-07T02:56:40;99534.97;;;6.64;40.52
32875;BME280;40468;42.128;24.750;2023-04-07T02:58:12;99535.81;;;6.65;40.40
32875;BME280;40468;42.128;24.750;2023-04-07T02:59:44;99538.41;;;6.65;40.57
32875;BME280;40468;42.128;24.750;2023-04-07T03:01:15;99533.31;;;6.63;40.56
32875;BME280;40468;42.128;24.750;2023-04-07T03:02:48;99537.66;;;6.61;40.74
32875;BME280;40468;42.128;24.750;2023-04-07T03:04:20;99536.84;;;6.60;40.62
32875;BME280;40468;42.128;24.750;2023-04-07T03:05:52;99536.03;;;6.58;40.80
32875;BME280;40468;42.128;24.750;2023-04-07T03:07:24;99543.06;;;6.55;40.81
32875;BME280;40468;42.128;24.750;2023-04-07T03:08:56;99540.47;;;6.55;40.68
32875;BME280;40468;42.128;24.750;2023-04-07T03:10:28;99535.31;;;6.53;40.82
32875;BME280;40468;42.128;24.750;2023-04-07T03:11:59;99532.69;;;6.55;40.82
32875;BME280;40468;42.128;24.750;2023-04-07T03:13:31;99535.31;;;6.53;40.64
32875;BME280;40468;42.128;24.750;2023-04-07T03:15:04;99540.56;;;6.52;40.71
32875;BME280;40468;42.128;24.750;2023-04-07T03:16:35;99533.84;;;6.46;40.79
32875;BME280;40468;42.128;24.750;2023-04-07T03:18:08;99540.59;;;6.50;40.86
32875;BME280;40468;42.128;24.750;2023-04-07T03:19:40;99542.34;;;6.50;40.79
32875;BME280;40468;42.128;24.750;2023-04-07T03:21:12;99549.22;;;6.51;40.72
32875;BME280;40468;42.128;24.750;2023-04-07T03:22:44;99547.47;;;6.51;40.90
32875;BME280;40468;42.128;24.750;2023-04-07T03:24:16;99539.75;;;6.50;40.82
32875;BME280;40468;42.128;24.750;2023-04-07T03:25:48;99543.25;;;6.49;40.84
32875;BME280;40468;42.128;24.750;2023-04-07T03:27:20;99543.28;;;6.47;40.85
32875;BME280;40468;42.128;24.750;2023-04-07T03:28:52;99547.69;;;6.45;40.89
32875;BME280;40468;42.128;24.750;2023-04-07T03:30:24;99546.81;;;6.45;40.95
32875;BME280;40468;42.128;24.750;2023-04-07T03:31:57;99539.97;;;6.44;41.02
32875;BME280;40468;42.128;24.750;2023-04-07T03:33:29;99546.88;;;6.43;41.13
32875;BME280;40468;42.128;24.750;2023-04-07T03:35:01;99542.63;;;6.42;41.15
32875;BME280;40468;42.128;24.750;2023-04-07T03:36:32;99546.88;;;6.43;41.19
32875;BME280;40468;42.128;24.750;2023-04-07T03:38:05;99540.81;;;6.44;41.18
32875;BME280;40468;42.128;24.750;2023-04-07T03:39:36;99545.97;;;6.44;41.10
32875;BME280;40468;42.128;24.750;2023-04-07T03:41:08;99551.22;;;6.43;41.08
32875;BME280;40468;42.128;24.750;2023-04-07T03:42:40;99554.63;;;6.43;41.17
32875;BME280;40468;42.128;24.750;2023-04-07T03:44:12;99552.84;;;6.45;41.10
32875;BME280;40468;42.128;24.750;2023-04-07T03:45:45;99564.88;;;6.46;41.34
32875;BME280;40468;42.128;24.750;2023-04-07T03:47:17;99550.22;;;6.47;41.10
32875;BME280;40468;42.128;24.750;2023-04-07T03:48:49;99561.41;;;6.47;41.18
32875;BME280;40468;42.128;24.750;2023-04-07T03:50:21;99555.38;;;6.47;41.15
32875;BME280;40468;42.128;24.750;2023-04-07T03:51:53;99561.41;;;6.47;41.15
32875;BME280;40468;42.128;24.750;2023-04-07T03:53:24;99563.13;;;6.47;41.17
32875;BME280;40468;42.128;24.750;2023-04-07T03:54:56;99561.41;;;6.47;40.98
32875;BME280;40468;42.128;24.750;2023-04-07T03:56:28;99560.56;;;6.47;41.04
32875;BME280;40468;42.128;24.750;2023-04-07T03:57:59;99563.22;;;6.45;41.14
32875;BME280;40468;42.128;24.750;2023-04-07T03:59:31;99569.16;;;6.47;41.14
32875;BME280;40468;42.128;24.750;2023-04-07T04:01:03;99565.72;;;6.47;41.10
32875;BME280;40468;42.128;24.750;2023-04-07T04:02:34;99566.56;;;6.47;41.21
32875;BME280;40468;42.128;24.750;2023-04-07T04:04:07;99563.94;;;6.49;41.09
32875;BME280;40468;42.128;24.750;2023-04-07T04:05:39;99564.88;;;6.46;41.21
32875;BME280;40468;42.128;24.750;2023-04-07T04:07:11;99567.38;;;6.49;41.17
32875;BME280;40468;42.128;24.750;2023-04-07T04:08:43;99568.28;;;6.48;41.20
32875;BME280;40468;42.128;24.750;2023-04-07T04:10:14;99564.78;;;6.49;41.13
32875;BME280;40468;42.128;24.750;2023-04-07T04:11:46;99564.75;;;6.51;41.22
32875;BME280;40468;42.128;24.750;2023-04-07T04:13:16;99570.69;;;6.53;41.13
32875;BME280;40468;42.128;24.750;2023-04-07T04:14:48;99569.06;;;6.50;41.31
32875;BME280;40468;42.128;24.750;2023-04-07T04:16:20;99575.00;;;6.54;41.09
32875;BME280;40468;42.128;24.750;2023-04-07T04:17:52;99578.44;;;6.54;41.03
32875;BME280;40468;42.128;24.750;2023-04-07T04:19:25;99577.53;;;6.55;41.00
32875;BME280;40468;42.128;24.750;2023-04-07T04:20:57;99583.59;;;6.54;40.91
32875;BME280;40468;42.128;24.750;2023-04-07T04:22:29;99586.19;;;6.54;40.89
32875;BME280;40468;42.128;24.750;2023-04-07T04:24:00;99588.78;;;6.54;40.85
32875;BME280;40468;42.128;24.750;2023-04-07T04:25:31;99589.63;;;6.55;40.97
32875;BME280;40468;42.128;24.750;2023-04-07T04:27:03;99594.72;;;6.56;41.02
32875;BME280;40468;42.128;24.750;2023-04-07T04:28:35;99589.56;;;6.56;40.88
32875;BME280;40468;42.128;24.750;2023-04-07T04:30:07;99591.19;;;6.59;40.96
32875;BME280;40468;42.128;24.750;2023-04-07T04:31:39;99582.66;;;6.57;41.01
32875;BME280;40468;42.128;24.750;2023-04-07T04:33:11;99482.09;;;5.93;40.88
32875;BME280;40468;42.128;24.750;2023-04-07T04:34:44;99598.81;;;6.64;40.97
32875;BME280;40468;42.128;24.750;2023-04-07T04:36:16;99591.06;;;6.64;40.89
32875;BME280;40468;42.128;24.750;2023-04-07T04:37:47;99594.47;;;6.66;40.79
32875;BME280;40468;42.128;24.750;2023-04-07T04:39:19;99597.03;;;6.66;40.88
32875;BME280;40468;42.128;24.750;2023-04-07T04:40:51;99597.88;;;6.66;40.90
32875;BME280;40468;42.128;24.750;2023-04-07T04:42:23;99603.81;;;6.70;41.09
32875;BME280;40468;42.128;24.750;2023-04-07T04:43:55;99597.69;;;6.72;40.97
32875;BME280;40468;42.128;24.750;2023-04-07T04:45:27;99597.50;;;6.77;40.96
32875;BME280;40468;42.128;24.750;2023-04-07T04:46:59;99599.13;;;6.81;40.98
32875;BME280;40468;42.128;24.750;2023-04-07T04:48:31;99606.72;;;6.86;40.71
32875;BME280;40468;42.128;24.750;2023-04-07T04:50:05;99599.78;;;6.86;40.77
32875;BME280;40468;42.128;24.750;2023-04-07T04:51:36;99592.72;;;6.91;40.70
32875;BME280;40468;42.128;24.750;2023-04-07T04:53:08;99607.13;;;7.00;40.53
32875;BME280;40468;42.128;24.750;2023-04-07T04:54:39;99607.06;;;7.01;40.56
32875;BME280;40468;42.128;24.750;2023-04-07T04:56:11;99606.88;;;7.07;40.41
32875;BME280;40468;42.128;24.750;2023-04-07T04:57:43;99611.03;;;7.12;40.40
32875;BME280;40468;42.128;24.750;2023-04-07T04:59:15;99607.44;;;7.16;40.32
32875;BME280;40468;42.128;24.750;2023-04-07T05:00:47;99609.06;;;7.18;40.22
32875;BME280;40468;42.128;24.750;2023-04-07T05:02:19;99615.03;;;7.22;40.14
32875;BME280;40468;42.128;24.750;2023-04-07T05:03:51;99616.59;;;7.26;40.02
32875;BME280;40468;42.128;24.750;2023-04-07T05:05:24;99619.06;;;7.29;39.85
32875;BME280;40468;42.128;24.750;2023-04-07T05:06:56;99625.06;;;7.31;39.86
32875;BME280;40468;42.128;24.750;2023-04-07T05:08:28;99628.41;;;7.33;39.71
32875;BME280;40468;42.128;24.750;2023-04-07T05:10:00;99624.16;;;7.32;39.71
32875;BME280;40468;42.128;24.750;2023-04-07T05:11:32;99621.53;;;7.34;39.44
32875;BME280;40468;42.128;24.750;2023-04-07T05:13:03;99625.72;;;7.36;39.38
32875;BME280;40468;42.128;24.750;2023-04-07T05:14:35;99623.94;;;7.38;39.36
32875;BME280;40468;42.128;24.750;2023-04-07T05:16:07;99620.44;;;7.39;39.23
32875;BME280;40468;42.128;24.750;2023-04-07T05:17:39;99627.22;;;7.43;39.31
32875;BME280;40468;42.128;24.750;2023-04-07T05:19:11;99627.00;;;7.49;39.27
32875;BME280;40468;42.128;24.750;2023-04-07T05:20:44;99623.50;;;7.50;39.10
32875;BME280;40468;42.128;24.750;2023-04-07T05:22:16;99625.94;;;7.55;39.27
32875;BME280;40468;42.128;24.750;2023-04-07T05:23:47;99625.00;;;7.58;39.00
32875;BME280;40468;42.128;24.750;2023-04-07T05:25:19;99634.34;;;7.62;38.97
32875;BME280;40468;42.128;24.750;2023-04-07T05:26:51;99630.78;;;7.64;38.98
32875;BME280;40468;42.128;24.750;2023-04-07T05:28:22;99632.38;;;7.68;38.92
32875;BME280;40468;42.128;24.750;2023-04-07T05:29:54;99635.72;;;7.72;38.73
32875;BME280;40468;42.128;24.750;2023-04-07T05:31:26;99634.72;;;7.74;38.64
32875;BME280;40468;42.128;24.750;2023-04-07T05:32:58;99624.44;;;7.73;38.51
32875;BME280;40468;42.128;24.750;2023-04-07T05:34:29;99636.94;;;7.85;38.38
32875;BME280;40468;42.128;24.750;2023-04-07T05:36:02;99634.28;;;8.10;38.47
32875;BME280;40468;42.128;24.750;2023-04-07T05:37:35;99634.84;;;8.64;37.91
32875;BME280;40468;42.128;24.750;2023-04-07T05:39:06;99639.59;;;9.17;37.28
32875;BME280;40468;42.128;24.750;2023-04-07T05:40:39;99634.06;;;9.45;36.70
32875;BME280;40468;42.128;24.750;2023-04-07T05:42:11;99610.63;;;9.47;35.99
32875;BME280;40468;42.128;24.750;2023-04-07T05:43:43;99632.00;;;9.72;35.76
32875;BME280;40468;42.128;24.750;2023-04-07T05:45:15;99629.78;;;9.84;35.35
32875;BME280;40468;42.128;24.750;2023-04-07T05:46:47;99632.75;;;9.95;35.19
32875;BME280;40468;42.128;24.750;2023-04-07T05:48:19;99639.91;;;9.90;34.89
32875;BME280;40468;42.128;24.750;2023-04-07T05:49:51;99631.31;;;9.88;35.20
32875;BME280;40468;42.128;24.750;2023-04-07T05:51:24;99631.31;;;9.88;34.89
32875;BME280;40468;42.128;24.750;2023-04-07T05:52:56;99633.66;;;9.94;34.89
32875;BME280;40468;42.128;24.750;2023-04-07T05:54:28;99641.56;;;9.91;34.90
32875;BME280;40468;42.128;24.750;2023-04-07T05:56:01;99637.66;;;9.82;34.54
32875;BME280;40468;42.128;24.750;2023-04-07T05:57:32;99638.81;;;9.75;34.89
32875;BME280;40468;42.128;24.750;2023-04-07T05:59:05;99640.59;;;9.74;34.71
32875;BME280;40468;42.128;24.750;2023-04-07T06:00:37;99641.94;;;9.83;35.01
32875;BME280;40468;42.128;24.750;2023-04-07T06:02:09;99638.38;;;10.05;34.94
32875;BME280;40468;42.128;24.750;2023-04-07T06:03:40;99639.50;;;10.18;34.16
32875;BME280;40468;42.128;24.750;2023-04-07T06:05:12;99640.59;;;10.33;34.17
32875;BME280;40468;42.128;24.750;2023-04-07T06:06:46;99633.72;;;10.49;33.88
32875;BME280;40468;42.128;24.750;2023-04-07T06:08:18;99636.53;;;10.63;33.80
32875;BME280;40468;42.128;24.750;2023-04-07T06:09:50;99640.97;;;10.79;33.61
32875;BME280;40468;42.128;24.750;2023-04-07T06:11:22;99634.97;;;10.96;33.42
32875;BME280;40468;42.128;24.750;2023-04-07T06:12:54;99635.28;;;11.07;33.43
32875;BME280;40468;42.128;24.750;2023-04-07T06:14:26;99633.50;;;11.25;32.89
32875;BME280;40468;42.128;24.750;2023-04-07T06:15:58;99636.25;;;11.39;32.79
32875;BME280;40468;42.128;24.750;2023-04-07T06:17:30;99640.22;;;11.46;32.31
32875;BME280;40468;42.128;24.750;2023-04-07T06:19:02;99641.16;;;11.45;32.58
32875;BME280;40468;42.128;24.750;2023-04-07T06:20:34;99638.78;;;11.41;32.59
32875;BME280;40468;42.128;24.750;2023-04-07T06:22:07;99642.47;;;11.36;32.35
32875;BME280;40468;42.128;24.750;2023-04-07T06:23:39;99634.97;;;11.30;32.55
32875;BME280;40468;42.128;24.750;2023-04-07T06:25:11;99635.59;;;11.18;32.20
32875;BME280;40468;42.128;24.750;2023-04-07T06:26:43;99643.25;;;11.04;32.53
32875;BME280;40468;42.128;24.750;2023-04-07T06:28:16;99646.38;;;10.93;32.53
32875;BME280;40468;42.128;24.750;2023-04-07T06:29:48;99645.00;;;10.86;32.77
32875;BME280;40468;42.128;24.750;2023-04-07T06:31:19;99648.50;;;10.85;32.93
32875;BME280;40468;42.128;24.750;2023-04-07T06:32:51;99642.38;;;10.86;33.00
32875;BME280;40468;42.128;24.750;2023-04-07T06:34:24;99644.69;;;10.92;32.85
32875;BME280;40468;42.128;24.750;2023-04-07T06:35:56;99652.13;;;11.00;32.64
32875;BME280;40468;42.128;24.750;2023-04-07T06:37:29;99629.22;;;10.89;32.45
32875;BME280;40468;42.128;24.750;2023-04-07T06:39:01;99651.59;;;10.93;32.60
32875;BME280;40468;42.128;24.750;2023-04-07T06:40:33;99651.66;;;10.91;32.46
32875;BME280;40468;42.128;24.750;2023-04-07T06:42:05;99610.19;;;10.69;32.79
32875;BME280;40468;42.128;24.750;2023-04-07T06:43:37;99652.94;;;11.00;32.45
32875;BME280;40468;42.128;24.750;2023-04-07T06:45:09;99649.44;;;11.01;32.24
32875;BME280;40468;42.128;24.750;2023-04-07T06:46:41;99651.91;;;11.04;32.27
32875;BME280;40468;42.128;24.750;2023-04-07T06:48:13;99653.28;;;11.11;32.44
32875;BME280;40468;42.128;24.750;2023-04-07T06:49:45;99655.66;;;11.16;32.03
32875;BME280;40468;42.128;24.750;2023-04-07T06:51:17;99645.56;;;11.27;32.43
32875;BME280;40468;42.128;24.750;2023-04-07T06:52:50;99650.75;;;11.45;31.95
32875;BME280;40468;42.128;24.750;2023-04-07T06:54:22;99660.31;;;11.61;32.23
32875;BME280;40468;42.128;24.750;2023-04-07T06:56:02;99659.34;;;11.80;31.49
32875;BME280;40468;42.128;24.750;2023-04-07T06:57:34;99661.59;;;11.88;31.26
32875;BME280;40468;42.128;24.750;2023-04-07T07:01:08;99654.66;;;12.20;31.23
32875;BME280;40468;42.128;24.750;2023-04-07T07:02:41;99662.66;;;12.48;31.12
32875;BME280;40468;42.128;24.750;2023-04-07T07:04:13;99662.91;;;12.75;30.59
32875;BME280;40468;42.128;24.750;2023-04-07T07:05:49;99653.75;;;12.98;30.63
32875;BME280;40468;42.128;24.750;2023-04-07T07:07:35;99664.06;;;13.16;30.33
32875;BME280;40468;42.128;24.750;2023-04-07T07:09:12;99583.38;;;12.80;29.75
32875;BME280;40468;42.128;24.750;2023-04-07T07:12:19;99660.16;;;13.23;29.50
32875;BME280;40468;42.128;24.750;2023-04-07T07:13:08;99639.97;;;13.11;29.59
32875;BME280;40468;42.128;24.750;2023-04-07T07:15:03;99665.47;;;13.21;29.58
32875;BME280;40468;42.128;24.750;2023-04-07T07:16:43;99625.66;;;13.02;29.00
32875;BME280;40468;42.128;24.750;2023-04-07T07:18:35;99662.03;;;13.37;28.93
32875;BME280;40468;42.128;24.750;2023-04-07T07:20:19;99664.75;;;13.50;28.71
32875;BME280;40468;42.128;24.750;2023-04-07T07:21:52;99660.59;;;13.46;28.05
32875;BME280;40468;42.128;24.750;2023-04-07T07:23:39;99673.41;;;13.36;28.23
32875;BME280;40468;42.128;24.750;2023-04-07T07:25:25;99667.19;;;13.23;28.69
32875;BME280;40468;42.128;24.750;2023-04-07T07:27:06;99616.41;;;12.81;28.39
32875;BME280;40468;42.128;24.750;2023-04-07T07:28:48;99672.25;;;13.10;28.53
32875;BME280;40468;42.128;24.750;2023-04-07T07:30:43;99662.03;;;13.21;28.79
32875;BME280;40468;42.128;24.750;2023-04-07T07:32:47;99673.13;;;13.40;28.47
32875;BME280;40468;42.128;24.750;2023-04-07T07:34:40;99664.56;;;13.53;27.98
32875;BME280;40468;42.128;24.750;2023-04-07T07:36:24;99659.50;;;13.50;27.88
32875;BME280;40468;42.128;24.750;2023-04-07T07:38:22;99655.78;;;13.54;27.79
32875;BME280;40468;42.128;24.750;2023-04-07T07:40:09;99655.72;;;13.70;27.80
32875;BME280;40468;42.128;24.750;2023-04-07T07:42:16;99660.28;;;13.95;27.68
32875;BME280;40468;42.128;24.750;2023-04-07T07:44:05;99658.97;;;14.02;27.63
32875;BME280;40468;42.128;24.750;2023-04-07T07:45:49;99659.78;;;14.17;27.46
32875;BME280;40468;42.128;24.750;2023-04-07T07:47:31;99673.06;;;14.28;27.24
32875;BME280;40468;42.128;24.750;2023-04-07T07:49:23;99661.09;;;14.24;27.06
32875;BME280;40468;42.128;24.750;2023-04-07T07:51:07;99657.16;;;14.31;27.24
32875;BME280;40468;42.128;24.750;2023-04-07T07:52:57;99646.94;;;14.41;27.33
32875;BME280;40468;42.128;24.750;2023-04-07T07:54:43;99653.81;;;14.70;27.27
32875;BME280;40468;42.128;24.750;2023-04-07T07:58:38;99651.47;;;15.33;27.16
32875;BME280;40468;42.128;24.750;2023-04-07T08:02:33;99648.16;;;15.69;26.57
32875;BME280;40468;42.128;24.750;2023-04-07T08:04:20;99609.78;;;15.66;26.55
32875;BME280;40468;42.128;24.750;2023-04-07T08:06:13;99643.16;;;16.15;26.25
32875;BME280;40468;42.128;24.750;2023-04-07T08:08:02;99651.63;;;16.32;26.28
32875;BME280;40468;42.128;24.750;2023-04-07T08:09:56;99648.53;;;16.51;26.30
32875;BME280;40468;42.128;24.750;2023-04-07T08:11:55;99635.38;;;16.75;26.10
32875;BME280;40468;42.128;24.750;2023-04-07T08:13:58;99648.03;;;16.94;25.83
32875;BME280;40468;42.128;24.750;2023-04-07T08:15:40;99639.91;;;16.97;25.24
32875;BME280;40468;42.128;24.750;2023-04-07T08:17:17;99643.78;;;17.04;25.40
32875;BME280;40468;42.128;24.750;2023-04-07T08:18:56;99637.84;;;17.13;25.21
32875;BME280;40468;42.128;24.750;2023-04-07T08:20:42;99577.03;;;16.70;24.84
32875;BME280;40468;42.128;24.750;2023-04-07T08:22:30;99642.28;;;17.24;25.21
32875;BME280;40468;42.128;24.750;2023-04-07T08:24:13;99629.25;;;17.22;24.60
32875;BME280;40468;42.128;24.750;2023-04-07T08:26:12;99640.28;;;16.92;24.58